In Rescue
 
Open Full Screen Window  High Contrast Mode
Wind Gusting 19 knots
12
May 13, 2021 11:25 AM CDT
Weather Information
Wind Direction
  210 °
Wind Speed
  12 kt (14 mph)
Wind Gust
  19 kt (22 mph)
Altimeter
30.29 in
Visibility
10 SM
Temperature
19° C
66° F
Dewpoint
01° C
34° F
Humidity
30%
1hr Rain Fall
00.00 in.
24hr Rain Fall
00.00 in.
Sky Condition
Clear
VFR

METAR KPWC 131625Z AUTO 21012G19KT 10SM CLR 19/01 A3029 RMK AO2

FAA Disclaimer: The data displayed is for advisory purposes only and is not to be used for flight planning or operations.